createdAt,value
2019-03-30T22:12:05.267Z,7.23
2019-03-30T22:13:05.287Z,7.31
2019-03-30T22:14:05.339Z,7.13
2019-03-30T22:15:05.391Z,7.16
2019-03-30T22:16:05.446Z,7.13
2019-03-30T22:17:05.472Z,7.01
2019-03-30T22:18:05.510Z,6.89
2019-03-30T22:19:05.557Z,7.02
2019-03-30T22:20:05.605Z,6.94
2019-03-30T22:21:05.672Z,6.84
2019-03-30T22:22:05.689Z,6.81
2019-03-30T22:23:05.746Z,6.80
2019-03-30T22:24:05.778Z,6.86
2019-03-30T22:25:05.828Z,6.81
2019-03-30T22:26:05.890Z,6.80
2019-03-30T22:27:05.938Z,6.87
2019-03-30T22:28:05.956Z,6.91
2019-03-30T22:29:05.997Z,6.89
2019-03-30T22:30:06.041Z,6.90
2019-03-30T22:31:06.097Z,6.89
2019-03-30T22:32:06.151Z,6.98
2019-03-30T22:33:06.197Z,6.98
2019-03-30T22:34:06.237Z,6.98
2019-03-30T22:35:06.271Z,6.98
2019-03-30T22:36:06.308Z,7.01
2019-03-30T22:37:06.377Z,7.01
2019-03-30T22:38:06.415Z,7.07
2019-03-30T22:39:06.453Z,7.04
2019-03-30T22:40:06.501Z,7.05
2019-03-30T22:41:06.537Z,7.07
2019-03-30T22:42:06.607Z,7.07
2019-03-30T22:43:06.631Z,6.97
2019-03-30T22:44:06.670Z,6.99
2019-03-30T22:45:06.709Z,6.94
2019-03-30T22:46:07.634Z,6.89
2019-03-30T22:47:06.831Z,6.95
2019-03-30T22:48:06.851Z,6.94
2019-03-30T22:49:06.895Z,7.04
2019-03-30T22:50:06.931Z,6.90
2019-03-30T22:51:06.998Z,6.90
2019-03-30T22:52:07.056Z,6.94
2019-03-30T22:53:07.063Z,6.89
2019-03-30T22:54:07.120Z,6.97
2019-03-30T22:55:07.179Z,6.94
2019-03-30T22:56:07.206Z,6.99
2019-03-30T22:57:07.261Z,6.91
2019-03-30T22:58:07.292Z,6.97
2019-03-30T22:59:07.337Z,6.95
2019-03-30T23:00:07.372Z,6.94
2019-03-30T23:01:07.542Z,6.89
2019-03-30T23:02:07.495Z,6.89
2019-03-30T23:03:07.506Z,6.90
2019-03-30T23:04:07.561Z,6.81
2019-03-30T23:05:07.597Z,6.86
2019-03-30T23:06:07.647Z,6.86
2019-03-30T23:07:07.712Z,6.73
2019-03-30T23:08:07.792Z,6.68
2019-03-30T23:09:11.120Z,6.66
2019-03-30T23:10:07.819Z,6.62
2019-03-30T23:11:07.863Z,6.68
2019-03-30T23:12:07.941Z,6.63
2019-03-30T23:13:07.973Z,6.65
2019-03-30T23:14:07.996Z,6.54
2019-03-30T23:15:08.151Z,6.54
2019-03-30T23:16:08.089Z,6.59
2019-03-30T23:17:08.126Z,6.58
2019-03-30T23:18:08.191Z,6.43
2019-03-30T23:19:08.215Z,6.50
2019-03-30T23:20:08.257Z,6.44
2019-03-30T23:21:08.306Z,6.50
2019-03-30T23:22:08.426Z,6.46
2019-03-30T23:23:08.422Z,6.53
2019-03-30T23:24:08.443Z,6.43
2019-03-30T23:25:08.479Z,6.41
2019-03-30T23:26:08.540Z,6.36
2019-03-30T23:27:08.651Z,6.32
2019-03-30T23:28:08.643Z,6.40
2019-03-30T23:29:08.670Z,6.32
2019-03-30T23:30:08.709Z,6.32
2019-03-30T23:31:08.758Z,6.33
2019-03-30T23:32:08.798Z,6.35
2019-03-30T23:33:08.848Z,6.33
2019-03-30T23:34:08.901Z,6.38
2019-03-30T23:35:08.920Z,6.35
2019-03-30T23:36:08.997Z,6.41
2019-03-30T23:37:09.007Z,6.44
2019-03-30T23:38:09.078Z,6.41
2019-03-30T23:39:09.095Z,6.44
2019-03-30T23:40:09.150Z,6.40
2019-03-30T23:41:09.192Z,6.47
2019-03-30T23:42:09.259Z,6.50
2019-03-30T23:43:09.305Z,6.41
2019-03-30T23:44:09.313Z,6.48
2019-03-30T23:45:09.413Z,6.40
2019-03-30T23:46:09.405Z,6.38
2019-03-30T23:47:09.449Z,6.32
2019-03-30T23:48:09.518Z,6.40
2019-03-30T23:49:09.563Z,6.33
2019-03-30T23:50:09.579Z,6.21
2019-03-30T23:51:09.628Z,6.19
2019-03-30T23:52:09.813Z,6.25
2019-03-30T23:53:09.731Z,6.10
2019-03-30T23:54:09.776Z,6.11
2019-03-30T23:55:09.820Z,6.22
2019-03-30T23:56:09.841Z,6.30
2019-03-30T23:57:09.886Z,6.32
2019-03-30T23:58:09.940Z,6.40
2019-03-30T23:59:09.997Z,6.48
